sensor_id;sensor_type;location;lat;lon;timestamp;P1;durP1;ratioP1;P2;durP2;ratioP2
17214;SDS011;8723;51.502;6.918;2022-08-01T00:02:10;17.23;;;15.60;;
17214;SDS011;8723;51.502;6.918;2022-08-01T00:04:37;18.02;;;15.93;;
17214;SDS011;8723;51.502;6.918;2022-08-01T00:07:04;16.15;;;14.52;;
17214;SDS011;8723;51.502;6.918;2022-08-01T00:09:32;20.30;;;18.15;;
17214;SDS011;8723;51.502;6.918;2022-08-01T00:11:59;18.10;;;16.27;;
17214;SDS011;8723;51.502;6.918;2022-08-01T00:14:27;19.45;;;17.00;;
17214;SDS011;8723;51.502;6.918;2022-08-01T00:16:54;18.00;;;16.20;;
17214;SDS011;8723;51.502;6.918;2022-08-01T00:19:22;18.88;;;16.58;;
17214;SDS011;8723;51.502;6.918;2022-08-01T00:21:49;18.55;;;16.65;;
17214;SDS011;8723;51.502;6.918;2022-08-01T00:24:16;18.92;;;16.92;;
17214;SDS011;8723;51.502;6.918;2022-08-01T00:26:44;17.17;;;15.48;;
17214;SDS011;8723;51.502;6.918;2022-08-01T00:29:11;18.33;;;16.42;;
17214;SDS011;8723;51.502;6.918;2022-08-01T00:31:38;17.65;;;15.95;;
17214;SDS011;8723;51.502;6.918;2022-08-01T00:34:05;18.38;;;16.58;;
17214;SDS011;8723;51.502;6.918;2022-08-01T00:36:33;20.50;;;17.40;;
17214;SDS011;8723;51.502;6.918;2022-08-01T00:39:00;17.05;;;15.55;;
17214;SDS011;8723;51.502;6.918;2022-08-01T00:41:28;16.73;;;15.00;;
17214;SDS011;8723;51.502;6.918;2022-08-01T00:43:55;17.63;;;15.85;;
17214;SDS011;8723;51.502;6.918;2022-08-01T00:46:22;18.10;;;15.93;;
17214;SDS011;8723;51.502;6.918;2022-08-01T00:48:49;17.35;;;15.65;;
17214;SDS011;8723;51.502;6.918;2022-08-01T00:51:16;17.63;;;15.88;;
17214;SDS011;8723;51.502;6.918;2022-08-01T00:53:45;18.08;;;16.27;;
17214;SDS011;8723;51.502;6.918;2022-08-01T00:56:12;16.85;;;15.10;;
17214;SDS011;8723;51.502;6.918;2022-08-01T00:58:40;14.82;;;13.35;;
17214;SDS011;8723;51.502;6.918;2022-08-01T01:01:07;17.35;;;15.48;;
17214;SDS011;8723;51.502;6.918;2022-08-01T01:03:34;16.48;;;14.77;;
17214;SDS011;8723;51.502;6.918;2022-08-01T01:06:05;15.52;;;13.95;;
17214;SDS011;8723;51.502;6.918;2022-08-01T01:08:35;15.00;;;13.57;;
17214;SDS011;8723;51.502;6.918;2022-08-01T01:11:10;15.43;;;13.82;;
17214;SDS011;8723;51.502;6.918;2022-08-01T01:13:41;16.58;;;14.95;;
17214;SDS011;8723;51.502;6.918;2022-08-01T01:16:10;17.23;;;15.45;;
17214;SDS011;8723;51.502;6.918;2022-08-01T01:18:40;17.98;;;16.17;;
17214;SDS011;8723;51.502;6.918;2022-08-01T01:21:12;18.40;;;16.50;;
17214;SDS011;8723;51.502;6.918;2022-08-01T01:23:45;18.38;;;15.10;;
17214;SDS011;8723;51.502;6.918;2022-08-01T01:26:25;17.58;;;15.88;;
17214;SDS011;8723;51.502;6.918;2022-08-01T01:29:03;16.73;;;15.13;;
17214;SDS011;8723;51.502;6.918;2022-08-01T01:31:33;15.88;;;14.23;;
17214;SDS011;8723;51.502;6.918;2022-08-01T01:34:01;15.60;;;14.00;;
17214;SDS011;8723;51.502;6.918;2022-08-01T01:36:29;16.67;;;15.02;;
17214;SDS011;8723;51.502;6.918;2022-08-01T01:38:57;15.75;;;14.15;;
17214;SDS011;8723;51.502;6.918;2022-08-01T01:41:25;16.15;;;14.02;;
17214;SDS011;8723;51.502;6.918;2022-08-01T01:43:53;16.70;;;14.70;;
17214;SDS011;8723;51.502;6.918;2022-08-01T01:46:22;15.93;;;14.40;;
17214;SDS011;8723;51.502;6.918;2022-08-01T01:48:52;17.60;;;15.75;;
17214;SDS011;8723;51.502;6.918;2022-08-01T01:51:21;17.95;;;16.05;;
17214;SDS011;8723;51.502;6.918;2022-08-01T01:53:49;20.30;;;17.40;;
17214;SDS011;8723;51.502;6.918;2022-08-01T01:56:16;19.42;;;17.40;;
17214;SDS011;8723;51.502;6.918;2022-08-01T01:58:45;18.13;;;16.27;;
17214;SDS011;8723;51.502;6.918;2022-08-01T02:01:15;17.92;;;15.95;;
17214;SDS011;8723;51.502;6.918;2022-08-01T02:03:44;17.83;;;15.95;;
17214;SDS011;8723;51.502;6.918;2022-08-01T02:06:11;18.23;;;15.48;;
17214;SDS011;8723;51.502;6.918;2022-08-01T02:08:42;18.13;;;15.95;;
17214;SDS011;8723;51.502;6.918;2022-08-01T02:11:09;18.13;;;16.23;;
17214;SDS011;8723;51.502;6.918;2022-08-01T02:13:46;16.42;;;14.88;;
17214;SDS011;8723;51.502;6.918;2022-08-01T02:16:15;19.92;;;16.80;;
17214;SDS011;8723;51.502;6.918;2022-08-01T02:18:44;18.17;;;16.27;;
17214;SDS011;8723;51.502;6.918;2022-08-01T02:21:13;18.65;;;16.65;;
17214;SDS011;8723;51.502;6.918;2022-08-01T02:23:43;19.27;;;17.15;;
17214;SDS011;8723;51.502;6.918;2022-08-01T02:26:12;19.35;;;16.15;;
17214;SDS011;8723;51.502;6.918;2022-08-01T02:28:41;17.58;;;15.70;;
17214;SDS011;8723;51.502;6.918;2022-08-01T02:31:11;18.38;;;16.40;;
17214;SDS011;8723;51.502;6.918;2022-08-01T02:33:40;19.93;;;17.53;;
17214;SDS011;8723;51.502;6.918;2022-08-01T02:36:09;19.83;;;17.73;;
17214;SDS011;8723;51.502;6.918;2022-08-01T02:38:39;19.88;;;17.15;;
17214;SDS011;8723;51.502;6.918;2022-08-01T02:41:08;17.88;;;15.98;;
17214;SDS011;8723;51.502;6.918;2022-08-01T02:43:36;18.92;;;16.92;;
17214;SDS011;8723;51.502;6.918;2022-08-01T02:46:04;19.98;;;17.08;;
17214;SDS011;8723;51.502;6.918;2022-08-01T02:48:33;21.38;;;17.90;;
17214;SDS011;8723;51.502;6.918;2022-08-01T02:51:02;21.98;;;18.00;;
17214;SDS011;8723;51.502;6.918;2022-08-01T02:53:32;21.55;;;19.27;;
17214;SDS011;8723;51.502;6.918;2022-08-01T02:56:02;24.42;;;19.80;;
17214;SDS011;8723;51.502;6.918;2022-08-01T02:58:30;21.65;;;19.45;;
17214;SDS011;8723;51.502;6.918;2022-08-01T03:00:58;23.95;;;21.38;;
17214;SDS011;8723;51.502;6.918;2022-08-01T03:03:25;25.77;;;19.45;;
17214;SDS011;8723;51.502;6.918;2022-08-01T03:05:53;25.75;;;20.35;;
17214;SDS011;8723;51.502;6.918;2022-08-01T03:08:20;24.50;;;20.70;;
17214;SDS011;8723;51.502;6.918;2022-08-01T03:10:49;22.25;;;19.92;;
17214;SDS011;8723;51.502;6.918;2022-08-01T03:13:17;21.45;;;19.15;;
17214;SDS011;8723;51.502;6.918;2022-08-01T03:15:45;21.63;;;19.05;;
17214;SDS011;8723;51.502;6.918;2022-08-01T03:18:12;18.92;;;16.92;;
17214;SDS011;8723;51.502;6.918;2022-08-01T03:20:41;16.83;;;14.93;;
17214;SDS011;8723;51.502;6.918;2022-08-01T03:23:09;17.23;;;15.43;;
17214;SDS011;8723;51.502;6.918;2022-08-01T03:25:38;19.00;;;15.73;;
17214;SDS011;8723;51.502;6.918;2022-08-01T03:28:08;18.83;;;14.57;;
17214;SDS011;8723;51.502;6.918;2022-08-01T03:30:38;18.52;;;15.20;;
17214;SDS011;8723;51.502;6.918;2022-08-01T03:33:06;17.73;;;15.60;;
17214;SDS011;8723;51.502;6.918;2022-08-01T03:35:34;16.98;;;15.25;;
17214;SDS011;8723;51.502;6.918;2022-08-01T03:38:02;17.50;;;15.40;;
17214;SDS011;8723;51.502;6.918;2022-08-01T03:40:31;17.50;;;15.70;;
17214;SDS011;8723;51.502;6.918;2022-08-01T03:43:02;17.48;;;15.48;;
17214;SDS011;8723;51.502;6.918;2022-08-01T03:45:31;17.80;;;15.90;;
17214;SDS011;8723;51.502;6.918;2022-08-01T03:48:01;18.15;;;16.10;;
17214;SDS011;8723;51.502;6.918;2022-08-01T03:50:30;17.52;;;15.82;;
17214;SDS011;8723;51.502;6.918;2022-08-01T03:52:59;19.80;;;17.73;;
17214;SDS011;8723;51.502;6.918;2022-08-01T03:55:27;19.55;;;16.95;;
17214;SDS011;8723;51.502;6.918;2022-08-01T03:57:54;19.75;;;16.98;;
17214;SDS011;8723;51.502;6.918;2022-08-01T04:00:22;18.50;;;16.42;;
17214;SDS011;8723;51.502;6.918;2022-08-01T04:02:51;18.15;;;15.30;;
17214;SDS011;8723;51.502;6.918;2022-08-01T04:05:19;17.10;;;14.38;;
17214;SDS011;8723;51.502;6.918;2022-08-01T04:07:47;15.90;;;14.25;;
17214;SDS011;8723;51.502;6.918;2022-08-01T04:10:20;16.27;;;14.25;;
17214;SDS011;8723;51.502;6.918;2022-08-01T04:12:47;16.65;;;13.93;;
17214;SDS011;8723;51.502;6.918;2022-08-01T04:15:14;15.90;;;14.10;;
17214;SDS011;8723;51.502;6.918;2022-08-01T04:17:41;15.98;;;13.90;;
17214;SDS011;8723;51.502;6.918;2022-08-01T04:20:10;16.58;;;14.18;;
17214;SDS011;8723;51.502;6.918;2022-08-01T04:22:38;15.77;;;13.55;;
17214;SDS011;8723;51.502;6.918;2022-08-01T04:25:07;16.15;;;14.43;;
17214;SDS011;8723;51.502;6.918;2022-08-01T04:27:36;16.73;;;13.63;;
17214;SDS011;8723;51.502;6.918;2022-08-01T04:30:05;15.68;;;13.35;;
17214;SDS011;8723;51.502;6.918;2022-08-01T04:32:33;16.55;;;14.18;;
17214;SDS011;8723;51.502;6.918;2022-08-01T04:35:01;14.90;;;13.40;;
17214;SDS011;8723;51.502;6.918;2022-08-01T04:37:31;16.50;;;13.20;;
17214;SDS011;8723;51.502;6.918;2022-08-01T04:39:58;16.47;;;13.67;;
17214;SDS011;8723;51.502;6.918;2022-08-01T04:42:25;17.98;;;13.85;;
17214;SDS011;8723;51.502;6.918;2022-08-01T04:44:53;15.70;;;14.05;;
17214;SDS011;8723;51.502;6.918;2022-08-01T04:47:20;18.30;;;14.95;;
17214;SDS011;8723;51.502;6.918;2022-08-01T04:49:48;16.38;;;14.55;;
17214;SDS011;8723;51.502;6.918;2022-08-01T04:52:15;17.67;;;14.15;;
17214;SDS011;8723;51.502;6.918;2022-08-01T04:54:44;17.30;;;14.27;;
17214;SDS011;8723;51.502;6.918;2022-08-01T04:57:12;16.35;;;13.63;;
17214;SDS011;8723;51.502;6.918;2022-08-01T04:59:43;15.82;;;13.95;;
17214;SDS011;8723;51.502;6.918;2022-08-01T05:02:12;15.68;;;14.00;;
17214;SDS011;8723;51.502;6.918;2022-08-01T05:04:39;18.35;;;14.95;;
17214;SDS011;8723;51.502;6.918;2022-08-01T05:07:07;18.13;;;14.40;;
17214;SDS011;8723;51.502;6.918;2022-08-01T05:09:35;18.27;;;14.52;;
17214;SDS011;8723;51.502;6.918;2022-08-01T05:12:04;18.35;;;14.43;;
17214;SDS011;8723;51.502;6.918;2022-08-01T05:14:32;19.25;;;15.32;;
17214;SDS011;8723;51.502;6.918;2022-08-01T05:16:59;18.33;;;15.30;;
17214;SDS011;8723;51.502;6.918;2022-08-01T05:19:28;21.55;;;16.05;;
17214;SDS011;8723;51.502;6.918;2022-08-01T05:21:55;18.23;;;14.57;;
17214;SDS011;8723;51.502;6.918;2022-08-01T05:24:22;16.53;;;14.37;;
17214;SDS011;8723;51.502;6.918;2022-08-01T05:26:49;16.77;;;13.93;;
17214;SDS011;8723;51.502;6.918;2022-08-01T05:29:18;17.40;;;14.07;;
17214;SDS011;8723;51.502;6.918;2022-08-01T05:31:45;15.25;;;13.40;;
17214;SDS011;8723;51.502;6.918;2022-08-01T05:34:12;17.05;;;14.38;;
17214;SDS011;8723;51.502;6.918;2022-08-01T05:36:39;17.30;;;14.10;;
17214;SDS011;8723;51.502;6.918;2022-08-01T05:39:06;18.42;;;14.63;;
17214;SDS011;8723;51.502;6.918;2022-08-01T05:41:34;19.30;;;15.02;;
17214;SDS011;8723;51.502;6.918;2022-08-01T05:44:02;17.40;;;14.45;;
17214;SDS011;8723;51.502;6.918;2022-08-01T05:46:31;17.70;;;14.33;;
17214;SDS011;8723;51.502;6.918;2022-08-01T05:48:58;18.95;;;15.00;;
17214;SDS011;8723;51.502;6.918;2022-08-01T05:51:25;18.25;;;14.52;;
17214;SDS011;8723;51.502;6.918;2022-08-01T05:53:53;16.60;;;13.23;;
17214;SDS011;8723;51.502;6.918;2022-08-01T05:56:20;14.20;;;12.70;;
17214;SDS011;8723;51.502;6.918;2022-08-01T05:58:48;13.90;;;12.02;;
17214;SDS011;8723;51.502;6.918;2022-08-01T06:01:15;12.77;;;11.10;;
17214;SDS011;8723;51.502;6.918;2022-08-01T06:03:44;10.55;;;9.48;;
17214;SDS011;8723;51.502;6.918;2022-08-01T06:06:11;10.32;;;9.18;;
17214;SDS011;8723;51.502;6.918;2022-08-01T06:08:39;12.18;;;9.85;;
17214;SDS011;8723;51.502;6.918;2022-08-01T06:11:06;9.95;;;8.60;;
17214;SDS011;8723;51.502;6.918;2022-08-01T06:13:33;11.10;;;9.30;;
17214;SDS011;8723;51.502;6.918;2022-08-01T06:16:00;9.97;;;8.50;;
17214;SDS011;8723;51.502;6.918;2022-08-01T06:18:27;9.37;;;8.37;;
17214;SDS011;8723;51.502;6.918;2022-08-01T06:20:56;8.77;;;7.83;;
17214;SDS011;8723;51.502;6.918;2022-08-01T06:23:23;8.70;;;7.80;;
17214;SDS011;8723;51.502;6.918;2022-08-01T06:25:51;7.85;;;7.05;;
17214;SDS011;8723;51.502;6.918;2022-08-01T06:28:19;8.85;;;7.55;;
17214;SDS011;8723;51.502;6.918;2022-08-01T06:30:46;7.75;;;6.88;;
17214;SDS011;8723;51.502;6.918;2022-08-01T06:33:13;7.25;;;6.55;;
17214;SDS011;8723;51.502;6.918;2022-08-01T06:35:40;7.90;;;7.10;;
17214;SDS011;8723;51.502;6.918;2022-08-01T06:38:09;7.10;;;6.40;;
17214;SDS011;8723;51.502;6.918;2022-08-01T06:40:36;7.60;;;6.70;;
17214;SDS011;8723;51.502;6.918;2022-08-01T06:43:03;7.57;;;6.57;;
17214;SDS011;8723;51.502;6.918;2022-08-01T06:45:30;7.57;;;6.43;;
17214;SDS011;8723;51.502;6.918;2022-08-01T06:47:57;7.25;;;6.55;;
17214;SDS011;8723;51.502;6.918;2022-08-01T06:50:24;7.97;;;7.00;;
17214;SDS011;8723;51.502;6.918;2022-08-01T06:52:52;10.50;;;7.22;;
17214;SDS011;8723;51.502;6.918;2022-08-01T06:55:20;8.15;;;6.93;;
17214;SDS011;8723;51.502;6.918;2022-08-01T06:57:48;8.82;;;6.93;;
17214;SDS011;8723;51.502;6.918;2022-08-01T07:00:16;6.70;;;5.63;;
17214;SDS011;8723;51.502;6.918;2022-08-01T07:02:47;6.75;;;6.10;;
17214;SDS011;8723;51.502;6.918;2022-08-01T07:05:14;6.40;;;5.78;;
17214;SDS011;8723;51.502;6.918;2022-08-01T07:07:41;6.25;;;5.65;;
17214;SDS011;8723;51.502;6.918;2022-08-01T07:10:08;6.90;;;5.72;;
17214;SDS011;8723;51.502;6.918;2022-08-01T07:12:37;7.65;;;6.18;;
17214;SDS011;8723;51.502;6.918;2022-08-01T07:15:06;6.57;;;5.85;;
17214;SDS011;8723;51.502;6.918;2022-08-01T07:17:36;6.57;;;5.80;;
17214;SDS011;8723;51.502;6.918;2022-08-01T07:20:04;5.88;;;5.30;;
17214;SDS011;8723;51.502;6.918;2022-08-01T07:22:31;5.70;;;4.90;;
17214;SDS011;8723;51.502;6.918;2022-08-01T07:24:58;5.65;;;5.05;;
17214;SDS011;8723;51.502;6.918;2022-08-01T07:27:26;5.97;;;4.97;;
17214;SDS011;8723;51.502;6.918;2022-08-01T07:29:54;6.15;;;4.78;;
17214;SDS011;8723;51.502;6.918;2022-08-01T07:32:21;4.70;;;3.90;;
17214;SDS011;8723;51.502;6.918;2022-08-01T07:34:48;5.93;;;4.60;;
17214;SDS011;8723;51.502;6.918;2022-08-01T07:37:15;5.30;;;4.80;;
17214;SDS011;8723;51.502;6.918;2022-08-01T07:39:43;5.30;;;4.73;;
17214;SDS011;8723;51.502;6.918;2022-08-01T07:42:10;3.97;;;3.57;;
17214;SDS011;8723;51.502;6.918;2022-08-01T07:44:37;4.37;;;3.93;;
17214;SDS011;8723;51.502;6.918;2022-08-01T07:47:05;3.87;;;3.57;;
17214;SDS011;8723;51.502;6.918;2022-08-01T07:49:33;4.10;;;3.53;;
17214;SDS011;8723;51.502;6.918;2022-08-01T07:52:00;3.85;;;3.33;;
17214;SDS011;8723;51.502;6.918;2022-08-01T07:54:27;3.38;;;3.10;;
17214;SDS011;8723;51.502;6.918;2022-08-01T07:56:54;3.00;;;2.80;;
17214;SDS011;8723;51.502;6.918;2022-08-01T07:59:21;3.67;;;3.10;;
17214;SDS011;8723;51.502;6.918;2022-08-01T08:01:49;2.90;;;2.70;;
17214;SDS011;8723;51.502;6.918;2022-08-01T08:04:18;2.35;;;2.15;;
17214;SDS011;8723;51.502;6.918;2022-08-01T08:06:45;2.30;;;2.10;;
17214;SDS011;8723;51.502;6.918;2022-08-01T08:09:14;2.00;;;1.90;;
17214;SDS011;8723;51.502;6.918;2022-08-01T08:11:41;2.50;;;2.30;;
17214;SDS011;8723;51.502;6.918;2022-08-01T08:14:09;3.05;;;2.47;;
17214;SDS011;8723;51.502;6.918;2022-08-01T08:16:36;2.50;;;2.30;;
17214;SDS011;8723;51.502;6.918;2022-08-01T08:19:03;1.92;;;1.83;;
17214;SDS011;8723;51.502;6.918;2022-08-01T08:21:32;3.17;;;2.88;;
17214;SDS011;8723;51.502;6.918;2022-08-01T08:23:59;2.20;;;2.00;;
17214;SDS011;8723;51.502;6.918;2022-08-01T08:26:44;2.70;;;2.47;;
17214;SDS011;8723;51.502;6.918;2022-08-01T08:29:11;3.22;;;2.92;;
17214;SDS011;8723;51.502;6.918;2022-08-01T08:31:38;3.60;;;3.30;;
17214;SDS011;8723;51.502;6.918;2022-08-01T08:34:05;4.32;;;3.75;;
17214;SDS011;8723;51.502;6.918;2022-08-01T08:36:34;3.97;;;3.53;;
17214;SDS011;8723;51.502;6.918;2022-08-01T08:39:01;2.60;;;2.40;;
17214;SDS011;8723;51.502;6.918;2022-08-01T08:41:28;1.90;;;1.80;;
17214;SDS011;8723;51.502;6.918;2022-08-01T08:43:56;2.53;;;2.15;;
17214;SDS011;8723;51.502;6.918;2022-08-01T08:46:24;2.13;;;1.92;;
17214;SDS011;8723;51.502;6.918;2022-08-01T08:48:51;2.03;;;1.92;;
17214;SDS011;8723;51.502;6.918;2022-08-01T08:51:19;2.50;;;2.30;;
17214;SDS011;8723;51.502;6.918;2022-08-01T08:53:47;1.98;;;1.80;;
17214;SDS011;8723;51.502;6.918;2022-08-01T08:56:15;1.67;;;1.58;;
17214;SDS011;8723;51.502;6.918;2022-08-01T08:58:42;1.92;;;1.65;;
17214;SDS011;8723;51.502;6.918;2022-08-01T09:01:10;1.70;;;1.60;;
17214;SDS011;8723;51.502;6.918;2022-08-01T09:03:38;1.70;;;1.60;;
17214;SDS011;8723;51.502;6.918;2022-08-01T09:06:05;1.73;;;1.60;;
17214;SDS011;8723;51.502;6.918;2022-08-01T09:08:33;1.70;;;1.60;;
17214;SDS011;8723;51.502;6.918;2022-08-01T09:11:02;2.22;;;1.90;;
17214;SDS011;8723;51.502;6.918;2022-08-01T09:13:29;1.83;;;1.60;;
17214;SDS011;8723;51.502;6.918;2022-08-01T09:15:56;2.42;;;2.22;;
17214;SDS011;8723;51.502;6.918;2022-08-01T09:18:28;1.70;;;1.60;;
17214;SDS011;8723;51.502;6.918;2022-08-01T09:21:08;2.15;;;1.58;;
17214;SDS011;8723;51.502;6.918;2022-08-01T09:23:37;1.40;;;1.30;;
17214;SDS011;8723;51.502;6.918;2022-08-01T09:26:08;1.50;;;1.40;;
17214;SDS011;8723;51.502;6.918;2022-08-01T09:28:36;1.40;;;1.30;;
17214;SDS011;8723;51.502;6.918;2022-08-01T09:31:07;1.65;;;1.40;;
17214;SDS011;8723;51.502;6.918;2022-08-01T09:36:17;1.42;;;1.33;;
17214;SDS011;8723;51.502;6.918;2022-08-01T09:38:44;1.60;;;1.50;;
17214;SDS011;8723;51.502;6.918;2022-08-01T09:41:12;1.60;;;1.50;;
17214;SDS011;8723;51.502;6.918;2022-08-01T09:43:40;1.48;;;1.38;;
17214;SDS011;8723;51.502;6.918;2022-08-01T09:46:14;2.28;;;1.48;;
17214;SDS011;8723;51.502;6.918;2022-08-01T09:48:42;1.63;;;1.50;;
17214;SDS011;8723;51.502;6.918;2022-08-01T09:51:27;1.40;;;1.30;;
17214;SDS011;8723;51.502;6.918;2022-08-01T09:53:54;1.45;;;1.38;;
17214;SDS011;8723;51.502;6.918;2022-08-01T09:56:23;1.52;;;1.42;;
17214;SDS011;8723;51.502;6.918;2022-08-01T09:58:51;1.60;;;1.50;;
17214;SDS011;8723;51.502;6.918;2022-08-01T10:01:19;1.40;;;1.30;;
17214;SDS011;8723;51.502;6.918;2022-08-01T10:03:47;1.50;;;1.40;;
17214;SDS011;8723;51.502;6.918;2022-08-01T10:06:30;0.93;;;0.80;;
17214;SDS011;8723;51.502;6.918;2022-08-01T10:08:57;0.93;;;0.93;;
17214;SDS011;8723;51.502;6.918;2022-08-01T10:11:25;1.37;;;0.70;;
17214;SDS011;8723;51.502;6.918;2022-08-01T10:13:53;0.75;;;0.75;;
17214;SDS011;8723;51.502;6.918;2022-08-01T10:16:20;0.70;;;0.65;;
17214;SDS011;8723;51.502;6.918;2022-08-01T10:18:48;0.68;;;0.68;;
17214;SDS011;8723;51.502;6.918;2022-08-01T10:21:15;1.38;;;0.85;;
17214;SDS011;8723;51.502;6.918;2022-08-01T10:23:42;0.90;;;0.50;;
17214;SDS011;8723;51.502;6.918;2022-08-01T10:26:10;0.50;;;0.50;;
17214;SDS011;8723;51.502;6.918;2022-08-01T10:28:40;0.50;;;0.50;;
17214;SDS011;8723;51.502;6.918;2022-08-01T10:31:07;0.55;;;0.55;;
17214;SDS011;8723;51.502;6.918;2022-08-01T10:33:35;0.88;;;0.40;;
17214;SDS011;8723;51.502;6.918;2022-08-01T10:36:05;0.60;;;0.45;;
17214;SDS011;8723;51.502;6.918;2022-08-01T10:38:32;0.77;;;0.77;;
17214;SDS011;8723;51.502;6.918;2022-08-01T10:41:00;0.70;;;0.40;;
17214;SDS011;8723;51.502;6.918;2022-08-01T10:43:28;1.35;;;0.38;;
17214;SDS011;8723;51.502;6.918;2022-08-01T10:45:57;0.50;;;0.40;;
17214;SDS011;8723;51.502;6.918;2022-08-01T10:48:26;0.20;;;0.20;;
17214;SDS011;8723;51.502;6.918;2022-08-01T10:50:57;0.20;;;0.20;;
17214;SDS011;8723;51.502;6.918;2022-08-01T10:53:25;0.40;;;0.40;;
17214;SDS011;8723;51.502;6.918;2022-08-01T10:55:57;0.22;;;0.22;;
17214;SDS011;8723;51.502;6.918;2022-08-01T10:58:25;1.53;;;0.73;;
17214;SDS011;8723;51.502;6.918;2022-08-01T11:03:40;0.30;;;0.30;;
17214;SDS011;8723;51.502;6.918;2022-08-01T11:06:10;0.50;;;0.40;;
17214;SDS011;8723;51.502;6.918;2022-08-01T11:08:42;0.45;;;0.40;;
17214;SDS011;8723;51.502;6.918;2022-08-01T11:11:09;0.50;;;0.50;;
17214;SDS011;8723;51.502;6.918;2022-08-01T11:16:25;0.40;;;0.40;;
17214;SDS011;8723;51.502;6.918;2022-08-01T11:18:54;1.10;;;0.30;;
17214;SDS011;8723;51.502;6.918;2022-08-01T11:21:21;0.40;;;0.40;;
17214;SDS011;8723;51.502;6.918;2022-08-01T11:23:51;0.40;;;0.40;;
17214;SDS011;8723;51.502;6.918;2022-08-01T11:26:19;0.40;;;0.40;;
17214;SDS011;8723;51.502;6.918;2022-08-01T11:28:48;1.13;;;0.50;;
17214;SDS011;8723;51.502;6.918;2022-08-01T11:31:33;1.10;;;0.50;;
17214;SDS011;8723;51.502;6.918;2022-08-01T11:34:02;0.30;;;0.30;;
17214;SDS011;8723;51.502;6.918;2022-08-01T11:36:29;0.52;;;0.40;;
17214;SDS011;8723;51.502;6.918;2022-08-01T11:39:15;0.80;;;0.50;;
17214;SDS011;8723;51.502;6.918;2022-08-01T11:41:43;0.43;;;0.43;;
17214;SDS011;8723;51.502;6.918;2022-08-01T11:44:12;0.55;;;0.45;;
17214;SDS011;8723;51.502;6.918;2022-08-01T11:46:49;0.40;;;0.40;;
17214;SDS011;8723;51.502;6.918;2022-08-01T11:52:08;0.70;;;0.50;;
17214;SDS011;8723;51.502;6.918;2022-08-01T11:54:36;0.52;;;0.50;;
17214;SDS011;8723;51.502;6.918;2022-08-01T11:57:04;0.70;;;0.47;;
17214;SDS011;8723;51.502;6.918;2022-08-01T11:59:36;0.47;;;0.47;;
17214;SDS011;8723;51.502;6.918;2022-08-01T12:02:04;0.50;;;0.50;;
17214;SDS011;8723;51.502;6.918;2022-08-01T12:04:47;0.50;;;0.50;;
17214;SDS011;8723;51.502;6.918;2022-08-01T12:07:16;0.45;;;0.45;;
17214;SDS011;8723;51.502;6.918;2022-08-01T12:09:43;0.95;;;0.45;;
17214;SDS011;8723;51.502;6.918;2022-08-01T12:12:11;0.60;;;0.60;;
17214;SDS011;8723;51.502;6.918;2022-08-01T12:14:42;0.70;;;0.70;;
17214;SDS011;8723;51.502;6.918;2022-08-01T12:17:09;0.60;;;0.60;;
17214;SDS011;8723;51.502;6.918;2022-08-01T12:19:36;1.45;;;0.52;;
17214;SDS011;8723;51.502;6.918;2022-08-01T12:22:07;1.10;;;0.60;;
17214;SDS011;8723;51.502;6.918;2022-08-01T12:24:37;0.60;;;0.60;;
17214;SDS011;8723;51.502;6.918;2022-08-01T12:27:04;0.65;;;0.60;;
17214;SDS011;8723;51.502;6.918;2022-08-01T12:29:33;0.60;;;0.60;;
17214;SDS011;8723;51.502;6.918;2022-08-01T12:32:00;1.20;;;0.60;;
17214;SDS011;8723;51.502;6.918;2022-08-01T12:34:28;0.50;;;0.50;;
17214;SDS011;8723;51.502;6.918;2022-08-01T12:36:55;0.82;;;0.60;;
17214;SDS011;8723;51.502;6.918;2022-08-01T12:39:28;0.60;;;0.60;;
17214;SDS011;8723;51.502;6.918;2022-08-01T12:41:57;0.50;;;0.50;;
17214;SDS011;8723;51.502;6.918;2022-08-01T12:44:24;0.40;;;0.40;;
17214;SDS011;8723;51.502;6.918;2022-08-01T12:46:52;0.63;;;0.63;;
17214;SDS011;8723;51.502;6.918;2022-08-01T12:49:20;1.30;;;0.88;;
17214;SDS011;8723;51.502;6.918;2022-08-01T12:51:47;1.02;;;0.90;;
17214;SDS011;8723;51.502;6.918;2022-08-01T12:54:14;1.77;;;0.80;;
17214;SDS011;8723;51.502;6.918;2022-08-01T12:56:41;1.67;;;0.80;;
17214;SDS011;8723;51.502;6.918;2022-08-01T12:59:23;0.70;;;0.70;;
17214;SDS011;8723;51.502;6.918;2022-08-01T13:01:51;1.30;;;0.60;;
17214;SDS011;8723;51.502;6.918;2022-08-01T13:04:19;1.20;;;1.00;;
17214;SDS011;8723;51.502;6.918;2022-08-01T13:06:46;1.00;;;0.90;;
17214;SDS011;8723;51.502;6.918;2022-08-01T13:09:14;0.85;;;0.80;;
17214;SDS011;8723;51.502;6.918;2022-08-01T13:11:41;0.80;;;0.80;;
17214;SDS011;8723;51.502;6.918;2022-08-01T13:14:10;0.70;;;0.70;;
17214;SDS011;8723;51.502;6.918;2022-08-01T13:16:54;1.10;;;1.00;;
17214;SDS011;8723;51.502;6.918;2022-08-01T13:19:27;1.77;;;0.73;;
17214;SDS011;8723;51.502;6.918;2022-08-01T13:22:07;1.10;;;1.02;;
17214;SDS011;8723;51.502;6.918;2022-08-01T13:24:35;0.98;;;0.80;;
17214;SDS011;8723;51.502;6.918;2022-08-01T13:27:02;1.65;;;1.00;;
17214;SDS011;8723;51.502;6.918;2022-08-01T13:29:30;1.00;;;0.95;;
17214;SDS011;8723;51.502;6.918;2022-08-01T13:32:00;0.70;;;0.70;;
17214;SDS011;8723;51.502;6.918;2022-08-01T13:34:30;1.20;;;0.93;;
17214;SDS011;8723;51.502;6.918;2022-08-01T13:36:58;0.90;;;0.90;;
17214;SDS011;8723;51.502;6.918;2022-08-01T13:39:26;1.08;;;0.95;;
17214;SDS011;8723;51.502;6.918;2022-08-01T13:42:06;1.38;;;0.90;;
17214;SDS011;8723;51.502;6.918;2022-08-01T13:44:34;1.07;;;1.07;;
17214;SDS011;8723;51.502;6.918;2022-08-01T13:47:02;1.00;;;1.00;;
17214;SDS011;8723;51.502;6.918;2022-08-01T13:49:29;1.65;;;1.20;;
17214;SDS011;8723;51.502;6.918;2022-08-01T13:51:57;1.38;;;0.90;;
17214;SDS011;8723;51.502;6.918;2022-08-01T13:54:24;1.65;;;1.08;;
17214;SDS011;8723;51.502;6.918;2022-08-01T13:56:51;1.00;;;1.00;;
17214;SDS011;8723;51.502;6.918;2022-08-01T13:59:18;0.90;;;0.90;;
17214;SDS011;8723;51.502;6.918;2022-08-01T14:01:45;1.40;;;1.00;;
17214;SDS011;8723;51.502;6.918;2022-08-01T14:04:14;1.10;;;1.00;;
17214;SDS011;8723;51.502;6.918;2022-08-01T14:06:41;1.43;;;1.00;;
17214;SDS011;8723;51.502;6.918;2022-08-01T14:09:09;1.27;;;1.17;;
17214;SDS011;8723;51.502;6.918;2022-08-01T14:11:36;1.30;;;1.10;;
17214;SDS011;8723;51.502;6.918;2022-08-01T14:14:03;2.53;;;1.30;;
17214;SDS011;8723;51.502;6.918;2022-08-01T14:16:30;1.75;;;1.20;;
17214;SDS011;8723;51.502;6.918;2022-08-01T14:18:58;1.67;;;1.20;;
17214;SDS011;8723;51.502;6.918;2022-08-01T14:21:26;2.23;;;1.47;;
17214;SDS011;8723;51.502;6.918;2022-08-01T14:23:53;2.08;;;1.48;;
17214;SDS011;8723;51.502;6.918;2022-08-01T14:26:20;1.47;;;1.37;;
17214;SDS011;8723;51.502;6.918;2022-08-01T14:28:48;2.30;;;1.30;;
17214;SDS011;8723;51.502;6.918;2022-08-01T14:31:15;1.25;;;1.13;;
17214;SDS011;8723;51.502;6.918;2022-08-01T14:33:42;1.65;;;1.55;;
17214;SDS011;8723;51.502;6.918;2022-08-01T14:36:09;2.92;;;1.45;;
17214;SDS011;8723;51.502;6.918;2022-08-01T14:38:38;1.90;;;1.50;;
17214;SDS011;8723;51.502;6.918;2022-08-01T14:41:05;2.47;;;1.88;;
17214;SDS011;8723;51.502;6.918;2022-08-01T14:43:32;2.08;;;1.50;;
17214;SDS011;8723;51.502;6.918;2022-08-01T14:45:59;1.35;;;1.25;;
17214;SDS011;8723;51.502;6.918;2022-08-01T14:48:28;1.40;;;1.30;;
17214;SDS011;8723;51.502;6.918;2022-08-01T14:50:55;1.92;;;1.30;;
17214;SDS011;8723;51.502;6.918;2022-08-01T14:53:22;1.80;;;1.38;;
17214;SDS011;8723;51.502;6.918;2022-08-01T14:55:51;3.72;;;1.55;;
17214;SDS011;8723;51.502;6.918;2022-08-01T14:58:18;2.50;;;1.67;;
17214;SDS011;8723;51.502;6.918;2022-08-01T15:00:45;3.05;;;1.70;;
17214;SDS011;8723;51.502;6.918;2022-08-01T15:03:12;1.55;;;1.45;;
17214;SDS011;8723;51.502;6.918;2022-08-01T15:05:39;1.30;;;1.15;;
17214;SDS011;8723;51.502;6.918;2022-08-01T15:08:06;2.47;;;1.50;;
17214;SDS011;8723;51.502;6.918;2022-08-01T15:10:34;1.98;;;1.33;;